Time;durP1;ratioP1;P1;durP2;ratioP2;P2;SDS_P1;SDS_P2;PMS_P1;PMS_P2;Temp;Humidity;BMP_temperature;BMP_pressure;BME280_temperature;BME280_humidity;BME280_pressure;Samples;Min_cycle;Max_cycle;Signal;HPM_P1;HPM_P2
2023/07/20 00:00:53;;;;;;;15.13;6.20;;;20.00;99.90;;;;;;5057592;28;20028;-72
2023/07/20 00:03:23;;;;;;;11.27;5.55;;;20.00;99.90;;;;;;5057810;28;20033;-73
2023/07/20 00:05:49;;;;;;;13.45;6.18;;;20.00;99.90;;;;;;5057581;28;20066;-73
2023/07/20 00:08:16;;;;;;;13.00;6.60;;;20.00;99.90;;;;;;5057450;28;20031;-73
2023/07/20 00:10:42;;;;;;;9.98;5.60;;;20.00;99.90;;;;;;5057439;28;20158;-72
2023/07/20 00:13:08;;;;;;;11.45;6.80;;;20.00;99.90;;;;;;5057332;28;20032;-73
2023/07/20 00:15:34;;;;;;;12.07;6.55;;;19.90;99.90;;;;;;5057444;28;20044;-73
2023/07/20 00:17:59;;;;;;;10.82;6.45;;;19.90;99.90;;;;;;5055905;28;20028;-72
2023/07/20 00:20:25;;;;;;;9.43;5.95;;;19.80;99.90;;;;;;5057501;28;20055;-73
2023/07/20 00:22:51;;;;;;;12.55;6.45;;;19.70;99.90;;;;;;5056930;28;20028;-75
2023/07/20 00:25:18;;;;;;;11.18;6.05;;;19.70;99.90;;;;;;5056983;28;20379;-75
2023/07/20 00:27:43;;;;;;;12.02;5.60;;;19.60;99.90;;;;;;5056966;28;20029;-73
2023/07/20 00:30:10;;;;;;;11.23;6.28;;;19.60;99.90;;;;;;5057403;28;20426;-73
2023/07/20 00:32:35;;;;;;;12.55;6.82;;;19.60;99.90;;;;;;5056057;28;20029;-73
2023/07/20 00:35:01;;;;;;;11.43;6.65;;;19.60;99.90;;;;;;5055805;28;20028;-73
2023/07/20 00:37:27;;;;;;;10.10;6.20;;;19.60;99.90;;;;;;5056918;28;20032;-73
2023/07/20 00:39:53;;;;;;;16.98;7.38;;;19.60;99.90;;;;;;5056794;28;20021;-75
2023/07/20 00:42:19;;;;;;;12.48;6.72;;;19.60;99.90;;;;;;5057183;28;20055;-73
2023/07/20 00:44:44;;;;;;;9.68;5.40;;;19.60;99.90;;;;;;5056438;28;20448;-73
2023/07/20 00:47:10;;;;;;;11.95;6.75;;;19.60;99.90;;;;;;5055503;28;20051;-75
2023/07/20 00:49:37;;;;;;;13.18;6.72;;;19.50;99.90;;;;;;5056881;28;20017;-75
2023/07/20 00:52:06;;;;;;;9.88;6.45;;;19.50;99.90;;;;;;5055669;28;20020;-75
2023/07/20 00:54:32;;;;;;;10.15;6.05;;;19.40;99.90;;;;;;5056595;28;20104;-73
2023/07/20 00:57:00;;;;;;;14.25;6.57;;;19.40;99.90;;;;;;5056706;28;20469;-72
2023/07/20 00:59:26;;;;;;;9.93;6.40;;;19.30;99.90;;;;;;5056698;28;20155;-73
2023/07/20 01:01:52;;;;;;;12.73;6.57;;;19.30;99.90;;;;;;5056686;28;20186;-72
2023/07/20 01:04:18;;;;;;;11.18;6.47;;;19.30;99.90;;;;;;5056863;28;20036;-72
2023/07/20 01:07:22;;;;;;;16.75;6.43;;;19.20;99.90;;;;;;5056744;28;20092;-73
2023/07/20 01:10:09;;;;;;;13.23;6.43;;;19.20;99.90;;;;;;5055059;28;20024;-72
2023/07/20 01:12:42;;;;;;;9.20;5.95;;;19.20;99.90;;;;;;5056764;28;20413;-72
2023/07/20 01:15:08;;;;;;;13.32;6.60;;;19.20;99.90;;;;;;5056284;28;20040;-72
2023/07/20 01:17:35;;;;;;;11.27;6.63;;;19.20;99.90;;;;;;5056523;28;20078;-73
2023/07/20 01:20:01;;;;;;;10.32;6.13;;;19.20;99.90;;;;;;5056523;28;20016;-72
2023/07/20 01:22:44;;;;;;;9.38;5.45;;;19.20;99.90;;;;;;5055272;28;20033;-73
2023/07/20 01:25:37;;;;;;;12.80;6.50;;;19.20;99.90;;;;;;5049466;28;20096;-73
2023/07/20 01:28:09;;;;;;;9.55;5.85;;;19.20;99.90;;;;;;5056303;28;20029;-73
2023/07/20 01:31:07;;;;;;;12.57;6.30;;;19.20;99.90;;;;;;5056530;28;20063;-72
2023/07/20 01:33:34;;;;;;;9.55;6.30;;;19.20;99.90;;;;;;5051754;28;20026;-72
2023/07/20 01:36:00;;;;;;;10.10;6.18;;;19.20;99.90;;;;;;5055021;28;20017;-73
2023/07/20 01:38:26;;;;;;;9.63;6.80;;;19.20;99.90;;;;;;5055089;28;20036;-73
2023/07/20 01:40:52;;;;;;;13.82;5.55;;;19.10;99.90;;;;;;5056058;28;20033;-72
2023/07/20 01:43:17;;;;;;;13.73;6.40;;;19.10;99.90;;;;;;5054988;28;20091;-73
2023/07/20 01:45:43;;;;;;;9.95;5.95;;;19.00;99.90;;;;;;5054839;28;20021;-73
2023/07/20 01:48:10;;;;;;;9.50;6.03;;;19.00;99.90;;;;;;5056166;28;20393;-73
2023/07/20 01:50:35;;;;;;;11.85;6.18;;;18.90;99.90;;;;;;5056365;28;20028;-73
2023/07/20 01:53:01;;;;;;;8.35;5.68;;;18.90;99.90;;;;;;5056257;28;20397;-73
2023/07/20 01:55:27;;;;;;;9.02;6.00;;;18.80;99.90;;;;;;5056180;28;20036;-72
2023/07/20 01:57:54;;;;;;;10.30;6.25;;;18.70;99.90;;;;;;5059360;28;20029;-73
2023/07/20 02:00:23;;;;;;;8.52;6.47;;;18.60;99.90;;;;;;5060028;28;20029;-73
2023/07/20 02:02:50;;;;;;;9.50;7.55;;;18.60;99.90;;;;;;5059856;28;20396;-73
2023/07/20 02:05:16;;;;;;;13.05;6.45;;;18.60;99.90;;;;;;5058583;28;20021;-73
2023/07/20 02:07:42;;;;;;;10.57;5.93;;;18.60;99.90;;;;;;5058391;28;20527;-73
2023/07/20 02:10:08;;;;;;;12.02;6.13;;;18.60;99.90;;;;;;5059528;28;20032;-73
2023/07/20 02:12:34;;;;;;;10.13;6.60;;;18.50;99.90;;;;;;5059839;28;20035;-74
2023/07/20 02:14:59;;;;;;;13.90;6.40;;;18.50;99.90;;;;;;5059311;28;20060;-73
2023/07/20 02:17:25;;;;;;;12.10;6.22;;;18.50;99.90;;;;;;5059740;28;20179;-73
2023/07/20 02:19:53;;;;;;;11.18;6.85;;;18.50;99.90;;;;;;5059502;28;20028;-73
2023/07/20 02:22:19;;;;;;;9.95;6.32;;;18.40;99.90;;;;;;5059469;28;20033;-74
2023/07/20 02:24:44;;;;;;;13.73;6.82;;;18.40;99.90;;;;;;5059158;28;20028;-74
2023/07/20 02:27:10;;;;;;;11.68;6.13;;;18.40;99.90;;;;;;5059358;28;20595;-73
2023/07/20 02:29:36;;;;;;;9.13;5.82;;;18.40;99.90;;;;;;5058042;28;20428;-74
2023/07/20 02:32:02;;;;;;;9.55;6.15;;;18.40;99.90;;;;;;5059481;28;20021;-74
2023/07/20 02:34:27;;;;;;;12.13;6.50;;;18.40;99.90;;;;;;5059428;28;20028;-74
2023/07/20 02:36:56;;;;;;;14.40;8.27;;;18.40;99.90;;;;;;5057857;28;20093;-74
2023/07/20 02:39:21;;;;;;;9.70;6.10;;;18.30;99.90;;;;;;5057957;28;20028;-74
2023/07/20 02:41:47;;;;;;;10.32;6.25;;;18.30;99.90;;;;;;5059002;28;20033;-73
2023/07/20 02:44:14;;;;;;;12.50;6.90;;;18.30;99.90;;;;;;5058999;28;20017;-74
2023/07/20 02:46:40;;;;;;;13.13;6.72;;;18.20;99.90;;;;;;5057878;28;20036;-73
2023/07/20 02:49:06;;;;;;;11.52;6.80;;;18.20;99.90;;;;;;5057662;28;20104;-74
2023/07/20 02:51:32;;;;;;;10.88;6.30;;;18.20;99.90;;;;;;5057842;28;20118;-74
2023/07/20 02:53:57;;;;;;;14.85;7.15;;;18.20;99.90;;;;;;5058943;28;20461;-73
2023/07/20 02:56:23;;;;;;;9.27;6.60;;;18.10;99.90;;;;;;5058914;28;20441;-73
2023/07/20 02:58:49;;;;;;;9.10;6.65;;;18.10;99.90;;;;;;5058759;28;20024;-74
2023/07/20 03:01:15;;;;;;;9.65;6.53;;;18.10;99.90;;;;;;5058533;28;20452;-74
2023/07/20 03:03:42;;;;;;;14.30;6.45;;;18.10;99.90;;;;;;5058656;28;20078;-73
2023/07/20 03:06:09;;;;;;;9.93;6.47;;;18.10;99.90;;;;;;5056630;28;20047;-73
2023/07/20 03:08:35;;;;;;;11.15;7.20;;;18.10;99.90;;;;;;5057804;28;20049;-73
2023/07/20 03:11:01;;;;;;;9.77;6.47;;;18.00;99.90;;;;;;5058692;28;20033;-74
2023/07/20 03:13:27;;;;;;;14.40;7.30;;;18.00;99.90;;;;;;5058071;28;20172;-73
2023/07/20 03:15:53;;;;;;;12.65;6.72;;;18.00;99.90;;;;;;5058664;28;20075;-74
2023/07/20 03:18:18;;;;;;;12.45;7.15;;;18.00;99.90;;;;;;5058521;28;20463;-74
2023/07/20 03:20:44;;;;;;;14.13;7.53;;;18.00;99.90;;;;;;5058488;28;20025;-74
2023/07/20 03:23:10;;;;;;;9.27;6.50;;;18.00;99.90;;;;;;5058106;28;20025;-74
2023/07/20 03:25:37;;;;;;;11.25;7.28;;;17.90;99.90;;;;;;5058181;28;20138;-74
2023/07/20 03:28:03;;;;;;;11.73;7.78;;;17.90;99.90;;;;;;5056767;28;20040;-74
2023/07/20 03:30:29;;;;;;;14.00;6.90;;;17.80;99.90;;;;;;5057007;28;20513;-73
2023/07/20 03:32:54;;;;;;;12.75;7.38;;;17.80;99.90;;;;;;5056841;28;20025;-74
2023/07/20 03:35:20;;;;;;;10.98;7.35;;;17.80;99.90;;;;;;5056835;28;20021;-74
2023/07/20 03:37:45;;;;;;;10.57;5.88;;;17.80;99.90;;;;;;5056662;28;20489;-73
2023/07/20 03:40:11;;;;;;;14.35;7.97;;;17.70;99.90;;;;;;5057944;28;20639;-73
2023/07/20 03:42:38;;;;;;;13.30;7.80;;;17.70;99.90;;;;;;5058059;28;20032;-73
2023/07/20 03:45:06;;;;;;;11.70;7.03;;;17.70;99.90;;;;;;5056635;28;20029;-74
2023/07/20 03:47:31;;;;;;;12.48;7.03;;;17.70;99.90;;;;;;5057858;28;20017;-73
2023/07/20 03:49:57;;;;;;;12.25;7.25;;;17.70;99.90;;;;;;5056534;28;20074;-74
2023/07/20 03:52:23;;;;;;;12.90;8.02;;;17.60;99.90;;;;;;5057948;28;20024;-74
2023/07/20 03:54:51;;;;;;;10.40;6.53;;;17.60;99.90;;;;;;5056308;28;20160;-73
2023/07/20 03:57:17;;;;;;;10.38;6.97;;;17.60;99.90;;;;;;5057687;28;20032;-73
2023/07/20 03:59:46;;;;;;;12.77;7.20;;;17.50;99.90;;;;;;5057585;28;20021;-73
2023/07/20 04:02:12;;;;;;;11.43;6.75;;;17.50;99.90;;;;;;5057496;28;20029;-73
2023/07/20 04:04:37;;;;;;;13.95;7.10;;;17.50;99.90;;;;;;5057748;28;20614;-73
2023/07/20 04:07:03;;;;;;;13.43;6.35;;;17.40;99.90;;;;;;5055950;28;20029;-73
2023/07/20 04:09:31;;;;;;;12.10;7.47;;;17.40;99.90;;;;;;5057336;28;20326;-73
2023/07/20 04:11:57;;;;;;;9.35;6.53;;;17.30;99.90;;;;;;5056270;28;20029;-73
2023/07/20 04:14:22;;;;;;;13.85;7.68;;;17.30;99.90;;;;;;5057103;28;20051;-73
2023/07/20 04:16:48;;;;;;;12.77;7.40;;;17.30;99.90;;;;;;5057236;28;20029;-73
2023/07/20 04:19:14;;;;;;;11.18;6.93;;;17.30;99.90;;;;;;5056610;28;20370;-73
2023/07/20 04:21:41;;;;;;;13.68;8.05;;;17.30;99.90;;;;;;5057145;28;20029;-73
2023/07/20 04:24:06;;;;;;;10.75;7.43;;;17.30;99.90;;;;;;5057155;28;20437;-73
2023/07/20 04:26:32;;;;;;;11.50;7.75;;;17.30;99.90;;;;;;5057042;28;20048;-73
2023/07/20 04:28:59;;;;;;;10.95;6.95;;;17.30;99.90;;;;;;5055686;28;20091;-73
2023/07/20 04:31:25;;;;;;;12.60;6.97;;;17.30;99.90;;;;;;5057156;28;20024;-73
2023/07/20 04:33:50;;;;;;;12.15;7.57;;;17.30;99.90;;;;;;5055883;28;20028;-73
2023/07/20 04:36:19;;;;;;;12.27;7.13;;;17.30;99.90;;;;;;5057066;28;20048;-73
2023/07/20 04:38:45;;;;;;;13.55;7.85;;;17.30;99.90;;;;;;5057158;28;20032;-73
2023/07/20 04:41:14;;;;;;;11.57;6.55;;;17.30;99.90;;;;;;5056736;28;20024;-73
2023/07/20 04:43:44;;;;;;;12.73;7.13;;;17.30;99.90;;;;;;5055548;28;20028;-73
2023/07/20 04:46:10;;;;;;;13.25;7.72;;;17.30;99.90;;;;;;5056940;28;20104;-73
2023/07/20 04:48:36;;;;;;;10.68;7.82;;;17.30;99.90;;;;;;5056956;28;20427;-73
2023/07/20 04:51:02;;;;;;;13.32;7.75;;;17.40;99.90;;;;;;5056661;28;20013;-73
2023/07/20 04:53:27;;;;;;;13.63;7.85;;;17.40;99.90;;;;;;5055635;28;20131;-73
2023/07/20 04:55:54;;;;;;;13.68;7.35;;;17.40;99.90;;;;;;5055336;28;20503;-74
2023/07/20 04:58:21;;;;;;;10.45;7.50;;;17.50;99.90;;;;;;5056764;28;20587;-73
2023/07/20 05:00:48;;;;;;;10.82;6.45;;;17.50;99.90;;;;;;5056599;28;20024;-73
2023/07/20 05:03:14;;;;;;;13.48;7.18;;;17.60;99.90;;;;;;5056695;28;20071;-73
2023/07/20 05:05:40;;;;;;;11.43;7.55;;;17.60;99.90;;;;;;5056597;28;20024;-74
2023/07/20 05:08:05;;;;;;;9.55;6.85;;;17.60;99.90;;;;;;5054776;28;20021;-72
2023/07/20 05:10:32;;;;;;;12.57;7.13;;;17.70;99.90;;;;;;5054991;28;20031;-72
2023/07/20 05:12:58;;;;;;;12.82;6.95;;;17.70;99.90;;;;;;5056605;28;20025;-73
2023/07/20 05:15:24;;;;;;;11.45;6.88;;;17.70;99.90;;;;;;5054846;28;20094;-72
2023/07/20 05:17:49;;;;;;;9.70;6.43;;;17.80;99.90;;;;;;5056457;28;20077;-73
2023/07/20 05:20:15;;;;;;;15.13;7.18;;;17.90;99.90;;;;;;5056750;28;20036;-73
2023/07/20 05:22:41;;;;;;;11.88;6.85;;;17.90;99.90;;;;;;5056342;28;20032;-72
2023/07/20 05:25:11;;;;;;;10.50;6.47;;;18.00;99.90;;;;;;5054873;28;20493;-72
2023/07/20 05:27:37;;;;;;;9.90;6.13;;;18.00;99.90;;;;;;5068061;28;20033;-73
2023/07/20 05:30:04;;;;;;;11.15;6.40;;;18.10;99.90;;;;;;5056758;28;20013;-72
2023/07/20 05:32:29;;;;;;;10.77;6.32;;;18.20;99.90;;;;;;5060553;28;20088;-72
2023/07/20 05:34:55;;;;;;;13.60;6.85;;;18.30;99.90;;;;;;5060461;28;20021;-71
2023/07/20 05:37:21;;;;;;;11.15;6.00;;;18.40;99.90;;;;;;5060253;28;20029;-72
2023/07/20 05:39:47;;;;;;;11.85;6.40;;;18.40;99.90;;;;;;5060195;28;20017;-72
2023/07/20 05:42:12;;;;;;;9.90;7.03;;;18.40;99.90;;;;;;5060084;28;20032;-72
2023/07/20 05:44:39;;;;;;;10.48;6.47;;;18.50;99.90;;;;;;5060341;28;20489;-72
2023/07/20 05:47:05;;;;;;;10.13;6.47;;;18.50;99.90;;;;;;5059923;28;20029;-73
2023/07/20 05:49:30;;;;;;;12.50;6.93;;;18.50;99.90;;;;;;5060264;28;20024;-72
2023/07/20 05:51:56;;;;;;;9.90;5.68;;;18.50;99.90;;;;;;5059962;28;20056;-72
2023/07/20 05:54:23;;;;;;;7.05;5.47;;;18.60;99.90;;;;;;5060173;28;20032;-72
2023/07/20 05:56:49;;;;;;;9.60;5.68;;;18.70;99.90;;;;;;5051286;28;20078;-72
2023/07/20 05:59:15;;;;;;;11.57;6.15;;;18.70;99.90;;;;;;5044806;28;20029;-72
2023/07/20 06:01:41;;;;;;;8.95;5.72;;;18.80;99.90;;;;;;5051564;28;20273;-72
2023/07/20 06:04:07;;;;;;;12.27;6.40;;;18.80;99.90;;;;;;5045515;28;20036;-72
2023/07/20 06:06:33;;;;;;;9.63;5.70;;;18.90;99.90;;;;;;5050455;28;20025;-72
2023/07/20 06:09:04;;;;;;;6.72;4.80;;;19.00;99.90;;;;;;5045017;28;20044;-71
2023/07/20 06:11:30;;;;;;;;;;;19.00;99.90;;;;;;5043295;28;20405;-72
2023/07/20 06:13:56;;;;;;;9.25;5.25;;;19.10;99.90;;;;;;5045055;28;19912;-72
2023/07/20 06:16:22;;;;;;;11.43;4.80;;;19.10;99.90;;;;;;5048878;28;20017;-72
2023/07/20 06:18:48;;;;;;;10.77;4.85;;;19.20;99.90;;;;;;5045137;28;20045;-72
2023/07/20 06:21:13;;;;;;;7.20;3.80;;;19.30;99.90;;;;;;5055443;28;20036;-72
2023/07/20 06:23:39;;;;;;;10.73;4.85;;;19.30;99.90;;;;;;5058858;28;20041;-72
2023/07/20 06:26:07;;;;;;;8.35;4.60;;;19.40;99.90;;;;;;5058674;28;20109;-72
2023/07/20 06:28:32;;;;;;;5.10;3.95;;;19.40;99.90;;;;;;5057970;28;20040;-71
2023/07/20 06:31:02;;;;;;;7.15;4.53;;;19.40;99.90;;;;;;5058492;28;20029;-72
2023/07/20 06:33:28;;;;;;;5.65;4.13;;;19.50;99.90;;;;;;5059540;28;20009;-72
2023/07/20 06:35:53;;;;;;;7.35;4.40;;;19.60;99.90;;;;;;5057786;28;20028;-72
2023/07/20 06:38:20;;;;;;;10.45;4.72;;;19.60;99.90;;;;;;5057674;28;20045;-71
2023/07/20 06:40:49;;;;;;;10.52;5.00;;;19.60;99.90;;;;;;5057707;28;20032;-72
2023/07/20 06:43:15;;;;;;;8.27;4.88;;;19.70;99.90;;;;;;5058598;28;20469;-72
2023/07/20 06:45:41;;;;;;;12.25;5.72;;;19.70;99.90;;;;;;5059145;28;20036;-71
2023/07/20 06:48:07;;;;;;;9.55;5.43;;;19.70;99.90;;;;;;5057909;28;20106;-71
2023/07/20 06:50:33;;;;;;;6.65;4.70;;;19.80;99.90;;;;;;5059047;28;20045;-72
2023/07/20 06:53:00;;;;;;;9.93;5.18;;;19.80;99.90;;;;;;5057780;28;20032;-72
2023/07/20 06:55:26;;;;;;;10.30;4.50;;;19.90;99.90;;;;;;5058774;28;20040;-71
2023/07/20 06:57:52;;;;;;;11.23;4.32;;;20.00;99.90;;;;;;5057553;28;20036;-72
2023/07/20 07:00:18;;;;;;;8.70;5.65;;;20.10;99.90;;;;;;5058923;28;20017;-72
2023/07/20 07:02:43;;;;;;;8.10;5.15;;;20.00;99.90;;;;;;5059005;28;20059;-72
2023/07/20 07:05:09;;;;;;;8.02;4.90;;;20.00;99.90;;;;;;5058732;28;20033;-71
2023/07/20 07:07:35;;;;;;;11.27;5.10;;;20.10;99.90;;;;;;5058874;28;20084;-71
2023/07/20 07:10:01;;;;;;;10.60;4.80;;;20.10;99.90;;;;;;5057166;28;20043;-71
2023/07/20 07:12:27;;;;;;;9.90;4.20;;;20.30;99.90;;;;;;5058990;28;20048;-72
2023/07/20 07:14:53;;;;;;;9.25;5.53;;;20.30;99.90;;;;;;5056920;28;20044;-71
2023/07/20 07:17:19;;;;;;;7.45;4.07;;;20.40;99.90;;;;;;5058565;28;20025;-72
2023/07/20 07:19:44;;;;;;;8.73;4.13;;;20.70;99.90;;;;;;5057309;28;20036;-72
2023/07/20 07:22:11;;;;;;;9.13;4.25;;;20.70;99.90;;;;;;5057076;28;20029;-71
2023/07/20 07:24:37;;;;;;;6.88;3.97;;;20.70;99.90;;;;;;5056634;28;20028;-72
2023/07/20 07:27:03;;;;;;;9.75;4.05;;;20.80;99.90;;;;;;5058417;28;20103;-71
2023/07/20 07:29:29;;;;;;;9.93;4.50;;;21.00;99.90;;;;;;5058244;28;20021;-71
2023/07/20 07:31:55;;;;;;;12.40;4.03;;;21.00;99.90;;;;;;5058391;28;20017;-72
2023/07/20 07:34:21;;;;;;;12.15;4.15;;;21.30;99.90;;;;;;5058112;28;20017;-73
2023/07/20 07:36:47;;;;;;;10.18;4.00;;;21.40;99.90;;;;;;5058383;28;20036;-72
2023/07/20 07:39:12;;;;;;;7.07;4.65;;;21.40;99.90;;;;;;5057846;28;20025;-72
2023/07/20 07:41:38;;;;;;;11.63;4.05;;;21.50;99.90;;;;;;5058192;28;20506;-71
2023/07/20 07:44:04;;;;;;;9.68;4.85;;;21.60;99.90;;;;;;5057842;28;20071;-72
2023/07/20 07:46:30;;;;;;;7.60;3.58;;;21.60;99.90;;;;;;5058201;28;20078;-71
2023/07/20 07:48:56;;;;;;;7.38;3.47;;;21.70;99.90;;;;;;5057913;28;20032;-72
2023/07/20 07:51:21;;;;;;;8.80;3.78;;;21.90;99.90;;;;;;5057857;28;20095;-71
2023/07/20 07:53:49;;;;;;;4.85;3.40;;;22.10;99.90;;;;;;5055630;28;20033;-71
2023/07/20 07:56:14;;;;;;;9.32;3.85;;;22.20;99.90;;;;;;5057641;28;20071;-71
2023/07/20 07:58:40;;;;;;;7.60;3.20;;;22.20;99.90;;;;;;5057791;28;20025;-72
2023/07/20 08:01:06;;;;;;;8.52;3.28;;;22.20;99.90;;;;;;5057775;28;20028;-71
2023/07/20 08:03:31;;;;;;;7.75;3.55;;;22.30;99.90;;;;;;5057480;28;20032;-71
2023/07/20 08:05:59;;;;;;;6.57;3.00;;;22.30;99.90;;;;;;5057815;28;20064;-71
2023/07/20 08:08:25;;;;;;;6.80;3.47;;;22.30;99.90;;;;;;5057436;28;20017;-71
2023/07/20 08:10:54;;;;;;;4.78;3.10;;;22.30;99.90;;;;;;5057464;28;20021;-72
2023/07/20 08:13:20;;;;;;;8.82;3.30;;;22.30;99.90;;;;;;5057121;28;20021;-72
2023/07/20 08:15:48;;;;;;;5.40;3.03;;;22.50;99.90;;;;;;5057418;28;20055;-72
2023/07/20 08:18:14;;;;;;;12.27;3.30;;;22.70;99.90;;;;;;5057397;28;20025;-73
2023/07/20 08:20:43;;;;;;;6.10;3.10;;;22.80;99.90;;;;;;5057412;28;20108;-71
2023/07/20 08:23:09;;;;;;;7.10;3.45;;;22.90;99.90;;;;;;5057056;28;20544;-71
2023/07/20 08:25:39;;;;;;;5.43;3.17;;;23.00;99.90;;;;;;5055735;28;20046;-72
2023/07/20 08:28:05;;;;;;;6.50;3.33;;;23.10;99.90;;;;;;5057104;28;20107;-72
2023/07/20 08:30:41;;;;;;;8.40;3.25;;;23.40;99.90;;;;;;5057340;28;20574;-71
2023/07/20 08:33:06;;;;;;;7.25;3.65;;;23.20;99.90;;;;;;5057255;28;20096;-71
2023/07/20 08:35:32;;;;;;;12.88;3.70;;;23.20;99.90;;;;;;5055807;28;20075;-72
2023/07/20 08:37:57;;;;;;;7.20;3.03;;;23.40;99.90;;;;;;5055722;28;20025;-72
2023/07/20 08:40:23;;;;;;;5.38;3.20;;;23.40;99.90;;;;;;5056878;28;20031;-71
2023/07/20 08:42:49;;;;;;;4.15;2.92;;;23.40;99.90;;;;;;5056854;28;20078;-71
2023/07/20 08:45:17;;;;;;;5.88;3.03;;;23.40;99.90;;;;;;5057090;28;20552;-71
2023/07/20 08:47:45;;;;;;;5.00;2.65;;;23.50;99.90;;;;;;5056882;28;20029;-71
2023/07/20 08:50:12;;;;;;;7.38;2.70;;;23.80;99.90;;;;;;5057093;28;20578;-71
2023/07/20 08:52:38;;;;;;;7.40;2.60;;;24.10;99.90;;;;;;5048854;28;20108;-71
2023/07/20 08:55:05;;;;;;;7.72;3.17;;;24.10;99.90;;;;;;5056536;28;20048;-71
2023/07/20 08:57:33;;;;;;;5.30;2.92;;;23.70;99.90;;;;;;5057189;28;20032;-71
2023/07/20 09:00:04;;;;;;;6.90;2.60;;;23.70;99.90;;;;;;5056606;28;20017;-71
2023/07/20 09:02:35;;;;;;;4.80;2.80;;;24.00;99.90;;;;;;5056999;28;20043;-71
2023/07/20 09:05:01;;;;;;;8.65;3.30;;;24.20;99.90;;;;;;5054992;28;20025;-72
2023/07/20 09:07:27;;;;;;;9.20;3.17;;;24.20;99.90;;;;;;5055342;28;20040;-72
2023/07/20 09:09:52;;;;;;;14.23;3.95;;;24.50;99.90;;;;;;5055093;28;20028;-72
2023/07/20 09:12:18;;;;;;;9.65;2.42;;;24.70;99.90;;;;;;5056776;28;20096;-72
2023/07/20 09:14:44;;;;;;;4.43;2.83;;;24.70;99.90;;;;;;5056384;28;20041;-72
2023/07/20 09:17:14;;;;;;;5.07;2.30;;;24.70;99.90;;;;;;5056676;28;20473;-71
2023/07/20 09:19:47;;;;;;;6.03;2.75;;;24.80;99.90;;;;;;5056588;28;20025;-72
2023/07/20 09:22:12;;;;;;;7.82;2.58;;;25.10;99.90;;;;;;5056536;28;20026;-71
2023/07/20 09:24:38;;;;;;;5.43;1.98;;;25.20;99.90;;;;;;5056367;28;20028;-73
2023/07/20 09:27:04;;;;;;;3.10;1.98;;;25.40;99.90;;;;;;5056523;28;20540;-72
2023/07/20 09:29:30;;;;;;;4.15;2.38;;;25.60;99.90;;;;;;5056620;28;20393;-71
2023/07/20 09:32:03;;;;;;;7.20;2.38;;;25.70;99.90;;;;;;5056633;28;20225;-71
2023/07/20 09:34:33;;;;;;;5.50;2.42;;;25.60;99.90;;;;;;5056770;28;20021;-71
2023/07/20 09:37:00;;;;;;;6.32;2.03;;;25.60;99.90;;;;;;5055275;28;20028;-71
2023/07/20 09:39:26;;;;;;;3.17;2.05;;;25.80;99.90;;;;;;5056020;28;20021;-71
2023/07/20 09:41:52;;;;;;;3.63;1.90;;;26.10;99.90;;;;;;5056451;28;20501;-71
2023/07/20 09:44:18;;;;;;;4.57;2.28;;;26.00;99.90;;;;;;5056267;28;20154;-72
2023/07/20 09:46:50;;;;;;;2.28;1.50;;;25.70;99.90;;;;;;5055141;28;20029;-72
2023/07/20 09:49:17;;;;;;;5.75;2.05;;;25.40;99.90;;;;;;5056142;28;20028;-71
2023/07/20 09:51:44;;;;;;;5.57;1.85;;;25.50;99.90;;;;;;5056246;28;20435;-71
2023/07/20 09:54:11;;;;;;;3.42;1.80;;;25.60;99.90;;;;;;5055950;28;20063;-72
2023/07/20 09:56:38;;;;;;;3.10;1.70;;;25.40;99.90;;;;;;5056343;28;20013;-72
2023/07/20 09:59:04;;;;;;;5.38;2.28;;;25.50;99.90;;;;;;5055891;28;20043;-72
2023/07/20 10:01:32;;;;;;;2.92;1.83;;;25.70;99.90;;;;;;5044230;28;20100;-71
2023/07/20 10:04:01;;;;;;;5.13;1.73;;;25.80;99.90;;;;;;5040895;28;20550;-72
2023/07/20 10:06:29;;;;;;;4.97;2.35;;;25.80;99.90;;;;;;5042592;28;20037;-72
2023/07/20 10:09:02;;;;;;;5.07;2.05;;;25.60;99.90;;;;;;5043487;28;20028;-72
2023/07/20 10:11:31;;;;;;;7.55;2.30;;;25.40;99.90;;;;;;5042313;28;20025;-70
2023/07/20 10:13:59;;;;;;;4.10;2.35;;;25.50;99.90;;;;;;5042861;28;20033;-72
2023/07/20 10:16:27;;;;;;;4.03;2.28;;;25.50;99.90;;;;;;5043702;28;20025;-72
2023/07/20 10:19:02;;;;;;;6.32;2.10;;;25.70;99.90;;;;;;5045954;28;20030;-71
2023/07/20 10:21:29;;;;;;;7.90;2.88;;;25.80;99.90;;;;;;5049158;28;20048;-72
2023/07/20 10:23:57;;;;;;;5.45;2.47;;;25.90;99.90;;;;;;5047483;28;20116;-72
2023/07/20 10:26:22;;;;;;;4.70;2.33;;;26.10;99.90;;;;;;5052011;28;20025;-71
2023/07/20 10:28:48;;;;;;;5.10;2.30;;;26.40;99.90;;;;;;5044824;28;20047;-71
2023/07/20 10:31:15;;;;;;;4.50;1.95;;;26.60;99.90;;;;;;5050838;28;20025;-71
2023/07/20 10:33:42;;;;;;;7.10;2.30;;;26.50;99.90;;;;;;5048059;28;20017;-72
2023/07/20 10:36:07;;;;;;;5.35;2.42;;;26.30;99.90;;;;;;5048634;28;20022;-71
2023/07/20 10:38:40;;;;;;;8.13;2.38;;;26.10;99.90;;;;;;5047357;28;20618;-71
2023/07/20 10:41:28;;;;;;;3.38;1.85;;;26.20;99.90;;;;;;5047510;28;20776;-71
2023/07/20 10:44:08;;;;;;;9.20;2.50;;;26.20;99.90;;;;;;5038385;28;20083;-71
2023/07/20 10:46:45;;;;;;;7.03;2.47;;;26.20;99.90;;;;;;5050452;28;20385;-71
2023/07/20 10:49:12;;;;;;;4.00;2.38;;;26.20;99.90;;;;;;5044626;28;20025;-71
2023/07/20 10:51:47;;;;;;;6.32;2.65;;;26.20;99.90;;;;;;5048355;28;20153;-71
2023/07/20 10:54:16;;;;;;;3.50;1.80;;;25.90;99.90;;;;;;5047420;28;20040;-71
2023/07/20 10:56:42;;;;;;;6.20;2.30;;;26.20;99.90;;;;;;5046415;28;20022;-71
2023/07/20 10:59:21;;;;;;;7.78;2.13;;;26.60;99.90;;;;;;5046228;28;20092;-71
2023/07/20 11:01:49;;;;;;;4.28;2.10;;;27.00;99.90;;;;;;5046904;28;20492;-72
2023/07/20 11:04:18;;;;;;;4.68;2.30;;;27.10;99.90;;;;;;5045538;28;20112;-72
2023/07/20 11:06:45;;;;;;;5.70;2.30;;;27.30;99.90;;;;;;5051780;28;20534;-72
2023/07/20 11:09:16;;;;;;;5.97;2.50;;;27.10;99.90;;;;;;5048196;28;20083;-71
2023/07/20 11:11:47;;;;;;;3.55;1.58;;;27.00;99.90;;;;;;5055326;28;20531;-71
2023/07/20 11:14:23;;;;;;;9.27;2.00;;;27.10;99.90;;;;;;5056687;28;20071;-72
2023/07/20 11:16:51;;;;;;;4.32;1.90;;;27.40;99.90;;;;;;5045951;28;20029;-71
2023/07/20 11:19:20;;;;;;;3.58;2.25;;;27.50;99.90;;;;;;5047020;28;20520;-71
2023/07/20 11:21:56;;;;;;;8.63;2.30;;;27.60;99.90;;;;;;5039721;28;20040;-71
2023/07/20 11:24:22;;;;;;;5.65;2.25;;;27.40;99.90;;;;;;5048373;28;20025;-71
2023/07/20 11:26:53;;;;;;;6.70;2.20;;;27.30;99.90;;;;;;5047374;28;20044;-71
2023/07/20 11:29:20;;;;;;;4.20;2.53;;;27.20;99.90;;;;;;5047732;28;20414;-71
2023/07/20 11:31:47;;;;;;;6.38;2.45;;;27.00;99.90;;;;;;5048053;28;20029;-71
2023/07/20 11:34:16;;;;;;;7.88;2.28;;;26.80;99.90;;;;;;5053124;28;20021;-71
2023/07/20 11:36:52;;;;;;;2.83;1.73;;;27.00;99.90;;;;;;5049415;28;20118;-71
2023/07/20 11:39:19;;;;;;;3.97;1.85;;;27.30;99.90;;;;;;5044545;28;20082;-72
2023/07/20 11:41:49;;;;;;;3.58;2.15;;;27.70;99.90;;;;;;5047541;28;20096;-71
2023/07/20 11:44:20;;;;;;;3.72;2.05;;;27.80;99.80;;;;;;5049399;28;20029;-70
2023/07/20 11:46:46;;;;;;;6.38;2.20;;;27.50;98.90;;;;;;5045238;28;20040;-71
2023/07/20 11:49:12;;;;;;;3.97;2.08;;;27.30;98.90;;;;;;5045876;28;20493;-72
2023/07/20 11:51:39;;;;;;;3.85;2.13;;;27.20;99.30;;;;;;5045022;28;20043;-72
2023/07/20 11:54:07;;;;;;;9.43;2.40;;;27.20;99.90;;;;;;5042757;28;20032;-71
2023/07/20 11:56:33;;;;;;;3.05;1.85;;;27.50;99.90;;;;;;5044561;28;20159;-72
2023/07/20 11:59:01;;;;;;;3.72;2.00;;;27.70;99.90;;;;;;5041161;28;20053;-71
2023/07/20 12:01:31;;;;;;;8.88;2.20;;;27.80;99.90;;;;;;5043705;28;20053;-72
2023/07/20 12:03:59;;;;;;;4.75;2.38;;;27.90;99.80;;;;;;5042493;28;20036;-71
2023/07/20 12:06:27;;;;;;;3.17;1.83;;;27.80;99.90;;;;;;5043357;28;20036;-71
2023/07/20 12:08:56;;;;;;;5.65;2.45;;;27.90;99.50;;;;;;5041856;28;20087;-72
2023/07/20 12:11:31;;;;;;;5.82;2.20;;;27.80;99.30;;;;;;5046954;28;20017;-71
2023/07/20 12:13:58;;;;;;;3.72;2.50;;;27.70;98.20;;;;;;5047227;28;20095;-71
2023/07/20 12:16:28;;;;;;;6.18;2.28;;;27.80;99.90;;;;;;5047163;28;20024;-71
2023/07/20 12:19:07;;;;;;;3.87;2.30;;;27.90;99.00;;;;;;5044968;28;20044;-71
2023/07/20 12:21:42;;;;;;;5.27;2.00;;;27.80;98.40;;;;;;5046514;28;20351;-71
2023/07/20 12:24:11;;;;;;;6.18;2.22;;;27.70;97.30;;;;;;5050744;28;20033;-71
2023/07/20 12:26:37;;;;;;;7.10;2.42;;;27.80;98.00;;;;;;5044924;28;20033;-71
2023/07/20 12:29:04;;;;;;;6.13;2.25;;;28.00;98.60;;;;;;5048102;28;20032;-71
2023/07/20 12:31:30;;;;;;;2.92;1.75;;;28.20;98.70;;;;;;5043216;28;20031;-72
2023/07/20 12:33:57;;;;;;;5.97;2.20;;;28.30;98.40;;;;;;5042902;28;20032;-72
2023/07/20 12:36:24;;;;;;;4.15;2.22;;;28.40;99.00;;;;;;5049266;28;20021;-72
2023/07/20 12:38:50;;;;;;;11.52;2.38;;;28.70;98.70;;;;;;5045123;28;20026;-73
2023/07/20 12:41:16;;;;;;;5.55;2.30;;;28.70;96.90;;;;;;5039372;28;20500;-72
2023/07/20 12:43:45;;;;;;;7.25;2.08;;;28.90;97.00;;;;;;5044813;28;20049;-72